createdAt,value
2022-11-28T00:00:39.080Z,97351.59
2022-11-28T00:01:43.409Z,97354.25
2022-11-28T00:02:45.157Z,97359.50
2022-11-28T00:03:47.258Z,97348.84
2022-11-28T00:04:52.473Z,97352.19
2022-11-28T00:05:54.189Z,97358.31
2022-11-28T00:06:56.028Z,97357.25
2022-11-28T00:07:57.682Z,97351.13
2022-11-28T00:09:00.338Z,97351.91
2022-11-28T00:10:02.202Z,97353.78
2022-11-28T00:11:08.354Z,97355.84
2022-11-28T00:12:09.929Z,97350.84
2022-11-28T00:13:11.581Z,97349.25
2022-11-28T00:14:14.488Z,97353.78
2022-11-28T00:15:16.178Z,97352.19
2022-11-28T00:16:21.630Z,97352.50
2022-11-28T00:17:23.347Z,97356.25
2022-11-28T00:18:25.178Z,97352.81
2022-11-28T00:19:26.738Z,97348.56
2022-11-28T00:20:30.914Z,97351.78
2022-11-28T00:21:32.681Z,97344.09
2022-11-28T00:22:34.276Z,97352.59
2022-11-28T00:23:35.994Z,97349.91
2022-11-28T00:24:37.582Z,97347.84
2022-11-28T00:25:39.132Z,97346.44
2022-11-28T00:26:42.321Z,97353.16
2022-11-28T00:27:44.237Z,97348.81
2022-11-28T00:28:46.073Z,97352.56
2022-11-28T00:29:47.895Z,97349.13
2022-11-28T00:30:49.541Z,97347.06
2022-11-28T00:31:51.392Z,97345.47
2022-11-28T00:32:52.977Z,97346.16
2022-11-28T00:33:55.409Z,97351.22
2022-11-28T00:34:57.009Z,97351.78
2022-11-28T00:36:05.110Z,97346.44
2022-11-28T00:37:06.658Z,97347.53
2022-11-28T00:38:08.271Z,97347.06
2022-11-28T00:39:09.947Z,97336.69
2022-11-28T00:40:11.605Z,97348.22
2022-11-28T00:41:15.506Z,97340.69
2022-11-28T00:42:20.588Z,97341.84
2022-11-28T00:43:22.158Z,97348.28
2022-11-28T00:44:23.766Z,97343.72
2022-11-28T00:45:25.426Z,97342.66
2022-11-28T00:46:27.805Z,97346.38
2022-11-28T00:47:29.426Z,97345.81
2022-11-28T00:48:32.853Z,97347.41
2022-11-28T00:49:34.445Z,97332.97
2022-11-28T00:50:35.951Z,97345.22
2022-11-28T00:51:38.238Z,97346.81
2022-11-28T00:52:39.777Z,97336.16
2022-11-28T00:53:43.031Z,97346.28
2022-11-28T00:54:44.740Z,97349.97
2022-11-28T00:55:46.413Z,97344.66
2022-11-28T00:56:48.022Z,97347.78
2022-11-28T00:57:49.649Z,97347.78
2022-11-28T00:58:52.062Z,97347.22
2022-11-28T00:59:53.610Z,97346.63
2022-11-28T01:00:55.166Z,97339.16
2022-11-28T01:01:56.757Z,97344.66
2022-11-28T01:02:58.354Z,97337.94
2022-11-28T01:04:04.357Z,97341.13
2022-11-28T01:05:06.528Z,97338.19
2022-11-28T01:06:09.067Z,97338.66
2022-11-28T01:07:10.564Z,97342.63
2022-11-28T01:08:12.210Z,97338.38
2022-11-28T01:09:20.420Z,97335.41
2022-11-28T01:10:22.324Z,97337.78
2022-11-28T01:11:23.899Z,97343.88
2022-11-28T01:12:25.463Z,97338.88
2022-11-28T01:13:27.142Z,97339.94
2022-11-28T01:14:30.303Z,97340.47
2022-11-28T01:15:31.830Z,97339.84
2022-11-28T01:16:33.552Z,97339.56
2022-11-28T01:17:35.753Z,97339.25
2022-11-28T01:18:37.851Z,97340.84
2022-11-28T01:19:39.433Z,97341.34
2022-11-28T01:20:41.120Z,97341.34
2022-11-28T01:21:42.767Z,97334.63
2022-11-28T01:22:44.308Z,97340.75
2022-11-28T01:23:45.892Z,97337.78
2022-11-28T01:24:47.433Z,97342.34
2022-11-28T01:25:49.007Z,97327.94
2022-11-28T01:26:50.549Z,97337.00
2022-11-28T01:27:52.114Z,97336.81
2022-11-28T01:28:54.291Z,97326.16
2022-11-28T01:29:55.819Z,97338.69
2022-11-28T01:30:57.379Z,97332.28
2022-11-28T01:31:58.969Z,97333.03
2022-11-28T01:33:00.622Z,97334.06
2022-11-28T01:34:02.372Z,97326.44
2022-11-28T01:35:04.386Z,97324.56
2022-11-28T01:36:06.384Z,97323.38
2022-11-28T01:37:08.157Z,97323.38
2022-11-28T01:38:09.741Z,97334.03
2022-11-28T01:39:12.236Z,97329.31
2022-11-28T01:40:14.149Z,97324.56
2022-11-28T01:41:18.542Z,97322.00
2022-11-28T01:42:20.602Z,97325.25
2022-11-28T01:43:22.966Z,97321.63
2022-11-28T01:44:24.428Z,97317.03
2022-11-28T01:45:30.389Z,97320.50
2022-11-28T01:46:33.397Z,97321.63
2022-11-28T01:47:35.868Z,97317.84
2022-11-28T01:48:42.550Z,97315.69
2022-11-28T01:49:45.304Z,97325.25
2022-11-28T01:50:50.044Z,97321.00
2022-11-28T01:51:57.800Z,97315.50
2022-11-28T01:53:04.676Z,97318.44
2022-11-28T01:54:06.746Z,97315.28
2022-11-28T01:55:10.861Z,97315.88
2022-11-28T01:56:23.371Z,97323.06
2022-11-28T01:57:26.871Z,97311.34
2022-11-28T01:58:30.813Z,97309.16
2022-11-28T01:59:41.807Z,97311.53
2022-11-28T02:00:43.504Z,97310.94
2022-11-28T02:01:45.837Z,97316.75
2022-11-28T02:02:56.513Z,97307.19
2022-11-28T02:03:59.457Z,97311.44
2022-11-28T02:05:01.279Z,97310.34
2022-11-28T02:06:02.966Z,97311.94
2022-11-28T02:07:04.701Z,97304.50
2022-11-28T02:08:07.227Z,97310.94
2022-11-28T02:09:16.497Z,97305.63
2022-11-28T02:10:26.234Z,97301.84
2022-11-28T02:12:01.868Z,97301.38
2022-11-28T02:13:26.858Z,97301.84
2022-11-28T02:14:34.320Z,97301.84
2022-11-28T02:16:06.139Z,97306.38
2022-11-28T02:17:16.840Z,97312.13
2022-11-28T02:18:47.485Z,97303.44
2022-11-28T02:20:30.231Z,97305.91
2022-11-28T02:21:54.828Z,97300.06
2022-11-28T02:23:11.128Z,97304.91
2022-11-28T02:24:40.199Z,97298.50
2022-11-28T02:26:17.354Z,97297.13
2022-11-28T02:27:40.439Z,97301.66
2022-11-28T02:29:24.282Z,97301.75
2022-11-28T02:30:51.405Z,97296.72
2022-11-28T02:31:52.950Z,97299.66
2022-11-28T02:33:07.133Z,97299.38
2022-11-28T02:34:30.911Z,97299.56
2022-11-28T02:35:42.657Z,97295.53
2022-11-28T02:36:49.956Z,97295.25
2022-11-28T02:37:57.428Z,97296.91
2022-11-28T02:39:22.748Z,97297.50
2022-11-28T02:40:38.944Z,97294.84
2022-11-28T02:41:55.497Z,97295.31
2022-11-28T02:43:08.929Z,97294.75
2022-11-28T02:44:24.946Z,97297.59
2022-11-28T02:45:46.207Z,97297.81
2022-11-28T02:46:55.360Z,97297.50
2022-11-28T02:48:04.765Z,97294.56
2022-11-28T02:49:12.527Z,97294.56
2022-11-28T02:50:22.166Z,97293.94
2022-11-28T02:51:49.902Z,97296.31
2022-11-28T02:53:07.521Z,97291.78
2022-11-28T02:54:12.870Z,97299.78
2022-11-28T02:55:15.238Z,97302.34
2022-11-28T02:56:16.800Z,97298.28
2022-11-28T02:57:18.362Z,97292.09
2022-11-28T02:58:20.048Z,97294.75
2022-11-28T02:59:41.873Z,97299.50
2022-11-28T03:00:47.041Z,97292.56
2022-11-28T03:01:48.719Z,97293.97
2022-11-28T03:02:59.225Z,97296.31
2022-11-28T03:04:13.090Z,97299.09
2022-11-28T03:05:22.613Z,97303.94
2022-11-28T03:06:44.712Z,97305.03
2022-11-28T03:08:06.494Z,97300.28
2022-11-28T03:09:26.313Z,97297.03
2022-11-28T03:10:42.830Z,97299.38
2022-11-28T03:11:44.338Z,97298.28
2022-11-28T03:13:04.225Z,97295.63
2022-11-28T03:14:24.186Z,97300.97
2022-11-28T03:15:36.579Z,97298.00
2022-11-28T03:16:42.642Z,97293.94
2022-11-28T03:18:05.526Z,97290.00
2022-11-28T03:19:14.917Z,97290.00
2022-11-28T03:20:22.785Z,97292.38
2022-11-28T03:21:46.794Z,97281.72
2022-11-28T03:23:33.156Z,97289.41
2022-11-28T03:24:34.717Z,97288.81
2022-11-28T03:25:36.202Z,97292.59
2022-11-28T03:26:53.151Z,97291.47
2022-11-28T03:28:11.800Z,97285.06
2022-11-28T03:29:22.066Z,97285.56
2022-11-28T03:30:43.466Z,97285.56
2022-11-28T03:31:51.759Z,97283.69
2022-11-28T03:32:56.023Z,97279.44
2022-11-28T03:34:00.726Z,97284.50
2022-11-28T03:35:25.662Z,97280.16
2022-11-28T03:36:31.908Z,97284.69
2022-11-28T03:37:37.996Z,97278.56
2022-11-28T03:38:45.019Z,97281.72
2022-11-28T03:39:53.348Z,97271.06
2022-11-28T03:40:58.892Z,97277.78
2022-11-28T03:42:10.111Z,97278.75
2022-11-28T03:43:17.797Z,97286.56
2022-11-28T03:44:40.179Z,97278.84
2022-11-28T03:45:46.885Z,97281.00
2022-11-28T03:46:51.839Z,97281.09
2022-11-28T03:48:00.496Z,97283.19
2022-11-28T03:49:03.803Z,97279.94
2022-11-28T03:50:11.431Z,97275.59
2022-11-28T03:51:20.667Z,97281.13
2022-11-28T03:52:33.481Z,97278.94
2022-11-28T03:53:45.674Z,97273.03
2022-11-28T03:54:54.220Z,97274.31
2022-11-28T03:56:00.059Z,97278.56
2022-11-28T03:57:13.778Z,97276.41
2022-11-28T03:58:33.798Z,97271.56
2022-11-28T03:59:38.752Z,97274.22
2022-11-28T04:00:51.617Z,97272.63
2022-11-28T04:01:56.234Z,97276.41
2022-11-28T04:03:19.515Z,97276.09
2022-11-28T04:04:45.853Z,97284.88
2022-11-28T04:05:53.164Z,97288.03
2022-11-28T04:07:31.723Z,97284.88
2022-11-28T04:08:41.305Z,97285.94
2022-11-28T04:09:50.977Z,97279.06
2022-11-28T04:11:10.421Z,97273.41
2022-11-28T04:12:33.394Z,97279.81
2022-11-28T04:13:45.852Z,97286.28
2022-11-28T04:14:53.431Z,97282.50
2022-11-28T04:15:55.214Z,97280.34
2022-11-28T04:17:36.682Z,97269.38
2022-11-28T04:19:08.893Z,97283.50
2022-11-28T04:20:31.059Z,97273.63
2022-11-28T04:21:41.424Z,97266.72
2022-11-28T04:22:48.675Z,97268.09
2022-11-28T04:23:52.743Z,97267.81
2022-11-28T04:25:10.138Z,97274.41
2022-11-28T04:26:20.237Z,97274.63
2022-11-28T04:27:32.867Z,97275.09
2022-11-28T04:28:37.455Z,97275.09
2022-11-28T04:29:45.584Z,97278.53
2022-11-28T04:30:50.693Z,97274.00
2022-11-28T04:31:56.627Z,97273.53
2022-11-28T04:33:03.896Z,97281.41
2022-11-28T04:34:08.808Z,97283.91
2022-11-28T04:35:16.248Z,97283.59
2022-11-28T04:36:20.469Z,97283.28
2022-11-28T04:37:25.913Z,97283.78
2022-11-28T04:38:29.788Z,97289.63
2022-11-28T04:39:33.425Z,97285.84
2022-11-28T04:40:44.806Z,97281.03
2022-11-28T04:42:02.692Z,97278.38
2022-11-28T04:43:10.907Z,97276.50
2022-11-28T04:44:22.276Z,97281.03
2022-11-28T04:45:34.655Z,97281.03
2022-11-28T04:46:41.515Z,97282.63
2022-11-28T04:47:44.754Z,97281.53
2022-11-28T04:48:46.508Z,97288.22
2022-11-28T04:49:48.257Z,97282.63
2022-11-28T04:51:01.455Z,97285.28
2022-11-28T04:52:16.837Z,97280.53
2022-11-28T04:53:46.434Z,97283.69
2022-11-28T04:55:06.354Z,97284.66
2022-11-28T04:56:13.678Z,97280.13
2022-11-28T04:57:24.391Z,97283.06
2022-11-28T04:58:33.072Z,97290.75
2022-11-28T04:59:35.114Z,97287.16
2022-11-28T05:00:38.283Z,97281.81
2022-11-28T05:01:41.953Z,97285.97
2022-11-28T05:02:46.660Z,97286.84
2022-11-28T05:03:48.784Z,97283.00
2022-11-28T05:04:53.267Z,97280.25
2022-11-28T05:05:54.826Z,97284.50
2022-11-28T05:07:08.186Z,97279.94
2022-11-28T05:08:10.192Z,97285.69
2022-11-28T05:09:12.787Z,97286.03
2022-11-28T05:10:18.252Z,97283.28
2022-11-28T05:11:20.258Z,97284.31
2022-11-28T05:12:21.833Z,97283.28
2022-11-28T05:13:23.525Z,97284.31
2022-11-28T05:14:25.226Z,97284.25
2022-11-28T05:15:26.832Z,97281.81
2022-11-28T05:16:28.437Z,97285.81
2022-11-28T05:17:30.399Z,97284.31
2022-11-28T05:18:31.960Z,97285.41
2022-11-28T05:19:33.778Z,97285.03
2022-11-28T05:20:37.359Z,97287.19
2022-11-28T05:21:38.905Z,97290.78
2022-11-28T05:22:40.439Z,97290.22
2022-11-28T05:23:43.902Z,97290.28
2022-11-28T05:24:45.652Z,97290.06
2022-11-28T05:25:47.476Z,97289.53
2022-11-28T05:26:49.125Z,97288.13
2022-11-28T05:27:50.707Z,97286.19
2022-11-28T05:28:52.642Z,97284.03
2022-11-28T05:29:54.316Z,97288.56
2022-11-28T05:31:00.170Z,97287.78
2022-11-28T05:32:01.841Z,97289.38
2022-11-28T05:33:03.863Z,97285.47
2022-11-28T05:34:05.578Z,97292.75
2022-11-28T05:35:07.808Z,97284.19
2022-11-28T05:36:13.417Z,97295.25
2022-11-28T05:37:15.960Z,97288.78
2022-11-28T05:38:17.567Z,97286.53
2022-11-28T05:39:19.104Z,97285.91
2022-11-28T05:40:20.711Z,97288.47
2022-11-28T05:41:27.978Z,97295.81
2022-11-28T05:42:32.782Z,97289.34
2022-11-28T05:43:34.387Z,97283.94
2022-11-28T05:44:37.194Z,97282.25
2022-11-28T05:45:45.627Z,97291.22
2022-11-28T05:46:47.736Z,97289.56
2022-11-28T05:47:49.343Z,97282.25
2022-11-28T05:48:50.875Z,97288.75
2022-11-28T05:49:52.470Z,97287.41
2022-11-28T05:50:54.036Z,97288.09
2022-11-28T05:51:55.573Z,97283.94
2022-11-28T05:52:57.089Z,97283.59
2022-11-28T05:53:58.611Z,97294.22
2022-11-28T05:55:00.389Z,97288.13
2022-11-28T05:56:10.158Z,97288.91
2022-11-28T05:57:11.693Z,97296.38
2022-11-28T05:58:13.763Z,97288.00
2022-11-28T05:59:15.407Z,97295.00
2022-11-28T06:00:17.536Z,97291.88
2022-11-28T06:01:25.150Z,97284.31
2022-11-28T06:02:26.820Z,97288.47
2022-11-28T06:03:28.403Z,97289.19
2022-11-28T06:04:30.043Z,97285.72
2022-11-28T06:05:47.475Z,97276.19
2022-11-28T06:06:50.933Z,97284.19
2022-11-28T06:07:52.595Z,97285.72
2022-11-28T06:08:54.406Z,97278.84
2022-11-28T06:09:55.936Z,97285.34
2022-11-28T06:10:58.831Z,97284.38
2022-11-28T06:12:00.548Z,97281.31
2022-11-28T06:13:03.004Z,97289.22
2022-11-28T06:14:04.633Z,97280.00
2022-11-28T06:15:07.044Z,97289.50
2022-11-28T06:16:10.529Z,97290.97
2022-11-28T06:17:12.183Z,97282.34
2022-11-28T06:18:13.713Z,97281.47
2022-11-28T06:19:15.474Z,97283.25
2022-11-28T06:20:17.294Z,97282.16
2022-11-28T06:21:18.882Z,97277.31
2022-11-28T06:22:20.617Z,97279.41
2022-11-28T06:23:22.142Z,97279.13
2022-11-28T06:24:23.743Z,97284.59
2022-11-28T06:25:25.257Z,97285.16
2022-11-28T06:26:28.239Z,97281.38
2022-11-28T06:27:29.763Z,97287.03
2022-11-28T06:28:31.298Z,97283.75
2022-11-28T06:29:33.064Z,97282.59
2022-11-28T06:30:34.655Z,97282.59
2022-11-28T06:31:36.543Z,97284.31
2022-11-28T06:32:38.285Z,97280.72
2022-11-28T06:33:40.557Z,97279.63
2022-11-28T06:34:42.128Z,97283.75
2022-11-28T06:35:43.685Z,97284.19
2022-11-28T06:36:45.334Z,97273.13
2022-11-28T06:37:46.986Z,97272.75
2022-11-28T06:38:49.068Z,97269.41
2022-11-28T06:39:51.356Z,97270.91
2022-11-28T06:40:59.695Z,97273.19
2022-11-28T06:42:01.290Z,97279.22
2022-11-28T06:43:02.813Z,97271.72
2022-11-28T06:44:04.618Z,97272.72
2022-11-28T06:45:06.713Z,97273.72
2022-11-28T06:46:16.762Z,97269.88
2022-11-28T06:47:18.536Z,97265.53
2022-11-28T06:48:20.881Z,97268.38
2022-11-28T06:49:22.632Z,97261.38
2022-11-28T06:50:24.159Z,97256.25
2022-11-28T06:51:25.897Z,97260.69
2022-11-28T06:52:27.677Z,97260.09
2022-11-28T06:53:31.529Z,97260.31
2022-11-28T06:54:33.356Z,97257.66
2022-11-28T06:55:35.030Z,97263.44
2022-11-28T06:56:36.597Z,97261.28
2022-11-28T06:57:39.321Z,97258.00
2022-11-28T06:58:41.940Z,97256.53
2022-11-28T06:59:43.577Z,97255.44
2022-11-28T07:00:45.285Z,97261.28
2022-11-28T07:01:47.120Z,97254.38
2022-11-28T07:02:48.829Z,97260.78
2022-11-28T07:03:50.773Z,97256.25
2022-11-28T07:04:52.467Z,97253.28
2022-11-28T07:05:54.037Z,97259.88
2022-11-28T07:06:55.615Z,97256.31
2022-11-28T07:08:00.697Z,97253.66
2022-11-28T07:09:02.334Z,97257.13
2022-11-28T07:10:04.467Z,97250.41
2022-11-28T07:11:13.639Z,97248.53
2022-11-28T07:12:15.268Z,97253.09
2022-11-28T07:13:16.851Z,97254.66
2022-11-28T07:14:18.447Z,97250.31
2022-11-28T07:15:19.951Z,97251.28
2022-11-28T07:16:23.900Z,97260.25
2022-11-28T07:17:25.554Z,97253.56
2022-11-28T07:18:27.143Z,97254.47
2022-11-28T07:19:28.692Z,97255.25
2022-11-28T07:20:30.245Z,97254.47
2022-11-28T07:21:32.054Z,97255.44
2022-11-28T07:22:33.610Z,97253.75
2022-11-28T07:23:35.387Z,97250.47
2022-11-28T07:24:37.105Z,97256.78
2022-11-28T07:25:38.740Z,97258.06
2022-11-28T07:26:40.419Z,97252.44
2022-11-28T07:27:42.818Z,97259.34
2022-11-28T07:28:45.314Z,97253.41
2022-11-28T07:29:46.901Z,97256.56
2022-11-28T07:30:48.587Z,97258.28
2022-11-28T07:31:50.786Z,97259.56
2022-11-28T07:32:52.667Z,97260.63
2022-11-28T07:33:54.528Z,97253.75
2022-11-28T07:34:56.092Z,97257.06
2022-11-28T07:36:02.250Z,97257.88
2022-11-28T07:37:03.797Z,97258.03
2022-11-28T07:38:05.493Z,97249.44
2022-11-28T07:39:16.010Z,97258.66
2022-11-28T07:40:19.739Z,97247.81
2022-11-28T07:41:26.053Z,97256.13
2022-11-28T07:42:28.253Z,97250.41
2022-11-28T07:43:29.939Z,97251.81
2022-11-28T07:44:31.701Z,97254.19
2022-11-28T07:45:53.842Z,97256.13
2022-11-28T07:46:54.749Z,97249.53
2022-11-28T07:47:56.399Z,97244.84
2022-11-28T07:48:57.948Z,97251.78
2022-11-28T07:49:59.471Z,97250.41
2022-11-28T07:51:06.299Z,97249.59
2022-11-28T07:52:07.870Z,97252.75
2022-11-28T07:53:09.516Z,97249.91
2022-11-28T07:54:11.244Z,97252.94
2022-11-28T07:55:12.782Z,97248.84
2022-11-28T07:56:20.555Z,97250.72
2022-11-28T07:57:22.174Z,97245.06
2022-11-28T07:58:23.874Z,97251.16
2022-11-28T07:59:25.403Z,97245.13
2022-11-28T08:00:26.995Z,97246.09
2022-11-28T08:01:35.991Z,97247.84
2022-11-28T08:02:39.009Z,97243.50
2022-11-28T08:03:41.214Z,97230.63
2022-11-28T08:04:47.759Z,97244.78
2022-11-28T08:05:51.197Z,97234.72
2022-11-28T08:06:52.710Z,97239.44
2022-11-28T08:07:54.487Z,97235.38
2022-11-28T08:08:57.347Z,97237.44
2022-11-28T08:09:58.958Z,97227.25
2022-11-28T08:11:03.267Z,97231.34
2022-11-28T08:13:07.414Z,97232.75
2022-11-28T08:14:09.378Z,97229.41
2022-11-28T08:15:11.651Z,97230.28
2022-11-28T08:16:19.448Z,97232.47
2022-11-28T08:17:21.169Z,97235.25
2022-11-28T08:18:22.982Z,97236.63
2022-11-28T08:19:24.955Z,97234.47
2022-11-28T08:20:26.568Z,97226.88
2022-11-28T08:21:30.840Z,97231.13
2022-11-28T08:22:32.425Z,97226.19
2022-11-28T08:23:35.663Z,97227.97
2022-11-28T08:24:37.300Z,97232.69
2022-11-28T08:25:38.979Z,97225.38
2022-11-28T08:26:40.633Z,97229.28
2022-11-28T08:27:42.159Z,97231.97
2022-11-28T08:28:44.250Z,97232.06
2022-11-28T08:29:50.402Z,97233.56
2022-11-28T08:30:53.928Z,97227.22
2022-11-28T08:31:55.574Z,97225.56
2022-11-28T08:32:57.305Z,97226.63
2022-11-28T08:34:02.182Z,97229.63
2022-11-28T08:35:03.855Z,97229.13
2022-11-28T08:36:10.798Z,97226.94
2022-11-28T08:37:12.303Z,97227.75
2022-11-28T08:38:13.851Z,97223.06
2022-11-28T08:39:24.454Z,97222.88
2022-11-28T08:40:26.810Z,97217.75
2022-11-28T08:41:28.574Z,97222.19
2022-11-28T08:42:30.197Z,97226.22
2022-11-28T08:43:31.785Z,97215.28
2022-11-28T08:44:33.806Z,97221.59
2022-11-28T08:45:37.874Z,97216.75
2022-11-28T08:46:39.530Z,97218.88
2022-11-28T08:47:41.079Z,97218.25
2022-11-28T08:48:43.239Z,97216.44
2022-11-28T08:49:45.043Z,97215.44
2022-11-28T08:50:50.279Z,97217.91
2022-11-28T08:51:52.062Z,97211.78
2022-11-28T08:52:53.621Z,97213.56
2022-11-28T08:53:59.401Z,97217.03
2022-11-28T08:55:01.400Z,97209.53
2022-11-28T08:56:03.660Z,97216.03
2022-11-28T08:57:05.658Z,97215.59
2022-11-28T08:58:07.469Z,97208.13
2022-11-28T08:59:09.606Z,97209.53
2022-11-28T09:00:11.720Z,97208.88
2022-11-28T09:01:22.826Z,97209.66
2022-11-28T09:02:26.033Z,97211.38
2022-11-28T09:03:28.118Z,97208.00
2022-11-28T09:04:29.754Z,97201.47
2022-11-28T09:05:31.899Z,97208.94
2022-11-28T09:06:33.781Z,97211.31
2022-11-28T09:07:35.447Z,97210.53
2022-11-28T09:08:37.052Z,97205.22
2022-11-28T09:09:38.666Z,97206.06
2022-11-28T09:10:41.214Z,97197.91
2022-11-28T09:11:43.130Z,97198.81
2022-11-28T09:12:44.656Z,97200.50
2022-11-28T09:13:46.764Z,97196.84
2022-11-28T09:14:48.323Z,97193.31
2022-11-28T09:15:52.607Z,97194.19
2022-11-28T09:16:55.302Z,97187.69
2022-11-28T09:17:56.997Z,97193.09
2022-11-28T09:18:59.459Z,97184.88
2022-11-28T09:20:00.963Z,97188.56
2022-11-28T09:21:05.434Z,97183.59
2022-11-28T09:22:06.967Z,97185.56
2022-11-28T09:23:09.527Z,97176.84
2022-11-28T09:24:13.982Z,97178.63
2022-11-28T09:25:16.052Z,97179.00
2022-11-28T09:26:20.383Z,97182.34
2022-11-28T09:27:21.998Z,97181.75
2022-11-28T09:28:24.216Z,97178.09
2022-11-28T09:29:27.063Z,97175.91
2022-11-28T09:30:28.832Z,97175.19
2022-11-28T09:31:30.535Z,97176.00
2022-11-28T09:32:32.310Z,97174.69
2022-11-28T09:33:34.493Z,97169.94
2022-11-28T09:34:36.073Z,97178.22
2022-11-28T09:35:40.913Z,97167.31
2022-11-28T09:36:42.483Z,97167.84
2022-11-28T09:37:44.330Z,97165.00
2022-11-28T09:38:46.305Z,97164.38
2022-11-28T09:40:11.561Z,97162.56
2022-11-28T09:41:27.624Z,97156.34
2022-11-28T09:42:35.199Z,97157.13
2022-11-28T09:43:42.836Z,97153.81
2022-11-28T09:44:50.685Z,97149.00
2022-11-28T09:45:55.158Z,97149.94
2022-11-28T09:47:00.356Z,97149.44
2022-11-28T09:48:23.037Z,97152.97
2022-11-28T09:49:46.603Z,97151.84
2022-11-28T09:50:52.888Z,97149.22
2022-11-28T09:52:06.419Z,97150.53
2022-11-28T09:53:20.869Z,97146.78
2022-11-28T09:54:22.354Z,97143.91
2022-11-28T09:55:23.848Z,97144.13
2022-11-28T09:56:25.573Z,97148.16
2022-11-28T09:57:40.583Z,97136.84
2022-11-28T09:58:50.660Z,97146.28
2022-11-28T09:59:52.198Z,97135.38
2022-11-28T10:01:03.097Z,97142.84
2022-11-28T10:02:21.303Z,97142.72
2022-11-28T10:03:54.030Z,97142.22
2022-11-28T10:04:55.614Z,97141.25
2022-11-28T10:06:03.381Z,97145.53
2022-11-28T10:07:12.039Z,97139.53
2022-11-28T10:08:32.728Z,97140.22
2022-11-28T10:10:25.442Z,97134.72
2022-11-28T10:12:00.610Z,97127.84
2022-11-28T10:13:13.758Z,97131.91
2022-11-28T10:14:42.687Z,97125.06
2022-11-28T10:16:10.192Z,97128.03
2022-11-28T10:17:17.284Z,97119.38
2022-11-28T10:18:24.434Z,97121.91
2022-11-28T10:21:05.300Z,97117.06
2022-11-28T10:22:15.440Z,97110.50
2022-11-28T10:23:25.347Z,97106.91
2022-11-28T10:24:44.854Z,97109.88
2022-11-28T10:25:51.019Z,97106.44
2022-11-28T10:26:58.849Z,97099.41
2022-11-28T10:28:01.531Z,97104.44
2022-11-28T10:29:17.729Z,97094.84
2022-11-28T10:30:29.177Z,97094.22
2022-11-28T10:31:39.406Z,97088.41
2022-11-28T10:32:45.158Z,97091.56
2022-11-28T10:33:56.103Z,97090.72
2022-11-28T10:35:26.773Z,97089.41
2022-11-28T10:36:55.520Z,97088.78
2022-11-28T10:37:57.228Z,97086.63
2022-11-28T10:39:09.899Z,97086.03
2022-11-28T10:40:21.077Z,97091.09
2022-11-28T10:41:44.949Z,97084.38
2022-11-28T10:42:52.126Z,97085.34
2022-11-28T10:44:06.502Z,97085.69
2022-11-28T10:45:55.494Z,97087.56
2022-11-28T10:47:29.407Z,97083.66
2022-11-28T10:48:59.627Z,97081.31
2022-11-28T10:50:16.362Z,97081.94
2022-11-28T10:51:33.603Z,97081.63
2022-11-28T10:52:45.910Z,97081.78
2022-11-28T10:54:01.778Z,97082.41
2022-11-28T10:55:25.792Z,97072.38
2022-11-28T10:56:42.977Z,97071.75
2022-11-28T10:58:21.621Z,97068.13
2022-11-28T10:59:41.971Z,97064.34
2022-11-28T11:00:45.555Z,97053.97
2022-11-28T11:01:50.497Z,97059.00
2022-11-28T11:02:57.225Z,97059.91
2022-11-28T11:03:58.825Z,97051.44
2022-11-28T11:05:00.744Z,97055.34
2022-11-28T11:06:02.971Z,97056.44
2022-11-28T11:07:44.219Z,97053.78
2022-11-28T11:08:47.724Z,97053.31
2022-11-28T11:09:49.333Z,97055.50
2022-11-28T11:10:52.377Z,97049.78
2022-11-28T11:12:00.915Z,97055.28
2022-11-28T11:13:12.426Z,97046.03
2022-11-28T11:14:13.972Z,97042.72
2022-11-28T11:15:23.262Z,97049.53
2022-11-28T11:16:24.871Z,97050.81
2022-11-28T11:17:36.461Z,97041.84
2022-11-28T11:18:44.418Z,97043.91
2022-11-28T11:19:46.222Z,97045.47
2022-11-28T11:20:47.768Z,97035.88
2022-11-28T11:22:20.008Z,97036.66
2022-11-28T11:23:23.078Z,97037.44
2022-11-28T11:24:24.612Z,97037.94
2022-11-28T11:25:28.191Z,97033.84
2022-11-28T11:26:35.819Z,97022.81
2022-11-28T11:27:38.101Z,97027.22
2022-11-28T11:28:44.104Z,97019.38
2022-11-28T11:29:48.161Z,97022.97
2022-11-28T11:31:00.294Z,97018.75
2022-11-28T11:32:06.252Z,97026.59
2022-11-28T11:33:15.618Z,97021.09
2022-11-28T11:34:19.791Z,97022.38
2022-11-28T11:35:25.840Z,97018.75
2022-11-28T11:36:36.861Z,97018.13
2022-11-28T11:37:38.865Z,97013.69
2022-11-28T11:38:40.430Z,97019.22
2022-11-28T11:39:50.797Z,97018.72
2022-11-28T11:40:52.853Z,97011.19
2022-11-28T11:42:00.151Z,97011.63
2022-11-28T11:43:01.722Z,97017.78
2022-11-28T11:44:15.540Z,97007.09
2022-11-28T11:45:29.860Z,97012.44
2022-11-28T11:46:31.429Z,97012.44
2022-11-28T11:47:44.072Z,97009.59
2022-11-28T11:48:48.517Z,97007.75
2022-11-28T11:49:50.484Z,97003.00
2022-11-28T11:50:55.276Z,97004.56
2022-11-28T11:51:59.210Z,97007.25
2022-11-28T11:53:05.995Z,97001.28
2022-11-28T11:54:13.268Z,97000.81
2022-11-28T11:55:18.625Z,96999.56
2022-11-28T11:56:20.379Z,96993.09
2022-11-28T11:57:33.124Z,97000.66
2022-11-28T11:58:44.846Z,97000.03
2022-11-28T11:59:53.082Z,96992.97
2022-11-28T12:00:58.563Z,96997.06
2022-11-28T12:02:03.415Z,97003.63
2022-11-28T12:03:15.090Z,97002.41
2022-11-28T12:04:44.406Z,96997.66
2022-11-28T12:06:14.166Z,96998.59
2022-11-28T12:07:39.367Z,97005.81
2022-11-28T12:08:50.192Z,97009.00
2022-11-28T12:09:55.722Z,97007.53
2022-11-28T12:11:17.467Z,97004.22
2022-11-28T12:12:26.005Z,96998.88
2022-11-28T12:13:27.682Z,96998.72
2022-11-28T12:14:32.868Z,96999.41
2022-11-28T12:16:09.070Z,96997.78
2022-11-28T12:19:14.908Z,96993.53
2022-11-28T12:20:37.618Z,96998.31
2022-11-28T12:22:05.939Z,96991.97
2022-11-28T12:23:39.553Z,96996.38
2022-11-28T12:24:59.617Z,96985.69
2022-11-28T12:26:21.880Z,96990.72
2022-11-28T12:27:32.572Z,96990.38
2022-11-28T12:28:58.762Z,96997.75
2022-11-28T12:30:18.904Z,96991.97
2022-11-28T12:31:20.480Z,96988.66
2022-11-28T12:32:32.473Z,96992.75
2022-11-28T12:33:55.739Z,96986.28
2022-11-28T12:35:21.349Z,96986.41
2022-11-28T12:36:48.093Z,96988.09
2022-11-28T12:38:10.254Z,96976.13
2022-11-28T12:39:46.451Z,96989.47
2022-11-28T12:41:20.679Z,96978.00
2022-11-28T12:42:46.796Z,96987.44
2022-11-28T12:44:07.103Z,96978.47
2022-11-28T12:45:47.012Z,96988.22
2022-11-28T12:46:51.324Z,96981.28
2022-11-28T12:48:02.679Z,96978.44
2022-11-28T12:49:28.575Z,96986.13
2022-11-28T12:50:38.075Z,96983.31
2022-11-28T12:51:39.664Z,96993.41
2022-11-28T12:53:02.173Z,96992.78
2022-11-28T12:54:28.677Z,96993.13
2022-11-28T12:55:44.125Z,96987.94
2022-11-28T12:57:15.969Z,97004.13
2022-11-28T12:58:29.979Z,97000.00
2022-11-28T13:00:08.630Z,96994.94
2022-11-28T13:01:32.042Z,96998.75
2022-11-28T13:02:58.127Z,96997.75
2022-11-28T13:04:02.693Z,96999.50
2022-11-28T13:05:19.400Z,97005.63
2022-11-28T13:06:40.443Z,97002.03
2022-11-28T13:08:12.598Z,97011.59
2022-11-28T13:09:32.738Z,97008.44
2022-11-28T13:10:50.555Z,97017.34
2022-11-28T13:12:16.381Z,97025.38
2022-11-28T13:13:23.211Z,97015.03
2022-11-28T13:14:36.733Z,97008.91
2022-11-28T13:15:52.996Z,97009.19
2022-11-28T13:16:59.356Z,97008.56
2022-11-28T13:18:13.947Z,97003.38
2022-11-28T13:19:33.625Z,97006.53